Lansing, MI (48922)

3:57 AM EDT on October 24, 2014 (GMT -0400)
Shaw Estates | Change Station
CLOSE
Current Station
Personal Weather Station
Location: East Lansing, MI
Elevation: 869 ft
Nearby Weather Stations

Elev 869 ft 42.73 °N, 84.54 °W | Updated 34 seconds ago

Mostly Cloudy
Mostly Cloudy
39.4 °F
Feels Like 39 °F
N
0.0
Wind Variable Wind from SW
Gusts 0.0 mph

Today
High -- | Low -- °F
--% Chance of Precip.
Yesterday
High -- | Low -- °F
Precip. -- in
8:02 AM 6:41 PM
New Moon, 0% visible
Pressure 30.09 in
Visibility 8.0 miles
Clouds Few 9000 ft
Windchill 39 °F
Dew Point 37 °F
Humidity 91%
Rainfall 0.00 in
Snow Depth Not available.
UV 0 out of 12
Pollen .60 out of 12
Ozone Good
Flu Activity Sporadic
METAR KLAN 240753Z 00000KT 8SM FEW090 05/02 A3008 RMK AO2 SLP188 T00500022

More Conditions Fewer Conditions

Pressure 30.09 in
Visibility 8.0 miles
Clouds Few 9000 ft
Windchill 39 °F
Dew Point 37 °F
Humidity 91%
Rainfall 0.00 in
Snow Depth Not available.
UV 0 out of 12
Pollen .60 out of 12
Ozone Good
Flu Activity Sporadic
METAR KLAN 240753Z 00000KT 8SM FEW090 05/02 A3008 RMK AO2 SLP188 T00500022

More Conditions Fewer Conditions

10-Day Weather Forecast

Almanac

Astronomy

Oct. 24, 2014 Rise Set
Actual Time 8:02 AM EDT 6:41 PM EDT
Civil Twilight 7:33 AM EDT 7:10 PM EDT
Nautical Twilight 7:00 AM EDT 7:43 PM EDT
Astronomical Twilight 6:27 AM EDT 8:16 PM EDT
Moon 8:41 AM EDT 7:20 PM EDT
Length of Visible Light 11h 37m
Length of Day
10h 39m
Tomorrow will be 2m 42s shorter.
New Moon, 0% of the Moon is Illuminated
Today
New Moon
Oct 30
First Quarter
Nov 6
Full
Nov 14
Last Quarter
Nov 22
New

Today's Extremes

State Highs State Lows

Community

WunderPhotos

Upload Photos

1,764,512 photos uploaded!

WunderBlogs® & News

Nearby

Air Quality

  Air Quality AQ Index Pollutant
Yesterday Good
OZONE
Current Good
OZONE
Friday Good
PM2.5
Saturday Good
PM2.5
Sunday Good
PM2.5
Monday Moderate
PM2.5

Snow Depth

Station Depth Elevation
No new snow has been reported.

Earthquake Activity

City Distance Mag. Time & Date
No recent earthquake activity has been reported nearby.
Minimum magnitude displayed is 2.5.

Coastal Water Temperatures

Place Temperature
No Stations Reporting

Nearby Weather Stations